createdAt,value
2023-01-09T00:01:34.016Z,57.46
2023-01-09T00:04:02.015Z,57.37
2023-01-09T00:06:29.320Z,57.26
2023-01-09T00:08:56.599Z,57.41
2023-01-09T00:11:23.735Z,57.25
2023-01-09T00:13:50.927Z,57.23
2023-01-09T00:16:18.543Z,57.14
2023-01-09T00:18:46.010Z,56.81
2023-01-09T00:21:14.569Z,56.70
2023-01-09T00:23:41.669Z,56.69
2023-01-09T00:26:12.910Z,56.58
2023-01-09T00:28:40.654Z,56.61
2023-01-09T00:31:09.352Z,56.70
2023-01-09T00:33:48.692Z,56.72
2023-01-09T00:36:15.845Z,56.66
2023-01-09T00:38:43.125Z,56.72
2023-01-09T00:41:15.859Z,56.65
2023-01-09T00:43:48.317Z,56.54
2023-01-09T00:46:16.925Z,56.58
2023-01-09T00:48:48.285Z,56.42
2023-01-09T00:51:17.718Z,56.50
2023-01-09T00:53:45.870Z,56.72
2023-01-09T00:56:17.697Z,57.13
2023-01-09T00:58:45.460Z,57.19
2023-01-09T01:01:12.940Z,57.05
2023-01-09T01:03:40.265Z,57.05
2023-01-09T01:06:26.605Z,57.01
2023-01-09T01:08:55.873Z,57.11
2023-01-09T01:11:24.554Z,57.23
2023-01-09T01:13:51.922Z,57.10
2023-01-09T01:16:19.439Z,56.71
2023-01-09T01:18:46.732Z,56.65
2023-01-09T01:21:15.084Z,56.49
2023-01-09T01:23:42.809Z,56.58
2023-01-09T01:26:15.974Z,56.57
2023-01-09T01:28:43.297Z,56.17
2023-01-09T01:31:17.837Z,56.08
2023-01-09T01:33:45.067Z,56.02
2023-01-09T01:36:12.430Z,56.25
2023-01-09T01:38:39.527Z,56.36
2023-01-09T01:41:07.196Z,56.38
2023-01-09T01:43:58.267Z,56.60
2023-01-09T01:46:28.266Z,56.38
2023-01-09T01:49:14.687Z,56.85
2023-01-09T01:51:47.370Z,56.61
2023-01-09T01:54:23.728Z,56.49
2023-01-09T01:56:57.029Z,56.27
2023-01-09T01:59:38.853Z,55.73
2023-01-09T02:02:06.753Z,55.97
2023-01-09T02:04:39.254Z,55.65
2023-01-09T02:07:09.901Z,55.51
2023-01-09T02:09:39.695Z,55.76
2023-01-09T02:12:25.141Z,55.62
2023-01-09T02:15:12.622Z,55.52
2023-01-09T02:18:03.011Z,55.64
2023-01-09T02:20:51.827Z,55.38
2023-01-09T02:23:27.885Z,55.26
2023-01-09T02:26:10.111Z,55.40
2023-01-09T02:28:59.197Z,55.04
2023-01-09T02:31:54.144Z,54.92
2023-01-09T02:34:48.620Z,54.69
2023-01-09T02:37:24.179Z,54.65
2023-01-09T02:40:20.725Z,54.59
2023-01-09T02:42:48.764Z,54.58
2023-01-09T02:45:16.287Z,54.74
2023-01-09T02:47:46.249Z,54.79
2023-01-09T02:50:26.114Z,55.05
2023-01-09T02:53:15.043Z,55.07
2023-01-09T02:56:09.903Z,55.45
2023-01-09T02:59:14.051Z,55.49
2023-01-09T03:01:58.489Z,55.80
2023-01-09T03:04:52.922Z,55.80
2023-01-09T03:07:33.160Z,55.55
2023-01-09T03:10:42.171Z,56.06
2023-01-09T03:13:14.784Z,56.24
2023-01-09T03:15:46.322Z,56.04
2023-01-09T03:18:15.786Z,56.07
2023-01-09T03:20:44.257Z,56.40
2023-01-09T03:23:11.460Z,56.40
2023-01-09T03:25:38.577Z,56.36
2023-01-09T03:28:10.786Z,56.87
2023-01-09T03:30:37.924Z,56.81
2023-01-09T03:33:05.031Z,56.94
2023-01-09T03:35:32.185Z,57.06
2023-01-09T03:37:59.389Z,57.43
2023-01-09T03:40:26.568Z,57.42
2023-01-09T03:42:53.729Z,57.38
2023-01-09T03:45:20.872Z,57.28
2023-01-09T03:47:48.023Z,57.32
2023-01-09T03:50:15.860Z,57.03
2023-01-09T03:52:43.026Z,57.12
2023-01-09T03:55:10.180Z,57.10
2023-01-09T03:57:37.336Z,57.00
2023-01-09T04:00:05.233Z,57.39
2023-01-09T04:02:39.552Z,56.78
2023-01-09T04:05:07.925Z,56.73
2023-01-09T04:07:35.127Z,56.86
2023-01-09T04:10:02.318Z,56.85
2023-01-09T04:12:29.523Z,57.12
2023-01-09T04:14:56.679Z,56.96
2023-01-09T04:17:23.922Z,57.09
2023-01-09T04:19:51.086Z,56.92
2023-01-09T04:22:18.170Z,56.99
2023-01-09T04:24:45.313Z,56.73
2023-01-09T04:27:13.092Z,57.01
2023-01-09T04:29:40.205Z,57.43
2023-01-09T04:32:07.510Z,57.76
2023-01-09T04:34:34.565Z,57.72
2023-01-09T04:37:01.738Z,57.30
2023-01-09T04:39:28.939Z,57.52
2023-01-09T04:41:56.077Z,57.63
2023-01-09T04:44:26.443Z,57.18
2023-01-09T04:46:55.869Z,57.24
2023-01-09T04:49:23.623Z,57.19
2023-01-09T04:51:51.028Z,57.56
2023-01-09T04:54:18.664Z,57.21
2023-01-09T04:56:46.012Z,57.55
2023-01-09T04:59:13.277Z,57.33
2023-01-09T05:01:40.544Z,57.17
2023-01-09T05:04:08.655Z,57.13
2023-01-09T05:06:36.147Z,57.43
2023-01-09T05:09:03.649Z,57.30
2023-01-09T05:11:30.768Z,57.37
2023-01-09T05:13:57.939Z,57.11
2023-01-09T05:16:25.133Z,57.05
2023-01-09T05:18:56.628Z,57.01
2023-01-09T05:21:27.603Z,57.37
2023-01-09T05:23:54.770Z,56.94
2023-01-09T05:26:25.559Z,57.03
2023-01-09T05:28:54.261Z,57.02
2023-01-09T05:31:21.542Z,56.99
2023-01-09T05:33:48.953Z,57.22
2023-01-09T05:36:16.457Z,57.37
2023-01-09T05:38:43.749Z,57.43
2023-01-09T05:41:11.115Z,57.72
2023-01-09T05:43:38.295Z,57.69
2023-01-09T05:46:05.592Z,57.48
2023-01-09T05:48:32.858Z,57.61
2023-01-09T05:51:00.046Z,57.63
2023-01-09T05:53:27.269Z,57.81
2023-01-09T05:55:54.356Z,57.60
2023-01-09T05:58:21.541Z,58.03
2023-01-09T06:00:49.508Z,57.90
2023-01-09T06:03:16.679Z,57.77
2023-01-09T06:05:43.809Z,57.55
2023-01-09T06:08:10.985Z,57.57
2023-01-09T06:10:41.047Z,57.39
2023-01-09T06:13:08.153Z,58.01
2023-01-09T06:15:35.346Z,57.46
2023-01-09T06:18:02.742Z,57.38
2023-01-09T06:20:30.267Z,57.34
2023-01-09T06:22:57.518Z,57.19
2023-01-09T06:25:24.784Z,57.34
2023-01-09T06:27:52.331Z,57.23
2023-01-09T06:30:20.466Z,56.73
2023-01-09T06:32:51.008Z,56.38
2023-01-09T06:35:21.050Z,56.66
2023-01-09T06:37:51.551Z,56.22
2023-01-09T06:40:21.132Z,56.03
2023-01-09T06:42:49.974Z,56.34
2023-01-09T06:45:17.833Z,55.85
2023-01-09T06:47:45.269Z,56.02
2023-01-09T06:50:12.728Z,55.87
2023-01-09T06:52:40.518Z,55.76
2023-01-09T06:55:08.807Z,55.59
2023-01-09T06:57:36.131Z,55.42
2023-01-09T07:00:04.427Z,55.26
2023-01-09T07:02:31.580Z,55.55
2023-01-09T07:04:58.804Z,55.17
2023-01-09T07:07:28.858Z,54.77
2023-01-09T07:09:56.074Z,54.54
2023-01-09T07:12:23.227Z,54.62
2023-01-09T07:14:50.524Z,54.54
2023-01-09T07:17:17.765Z,54.26
2023-01-09T07:19:44.941Z,54.28
2023-01-09T07:22:12.737Z,54.24
2023-01-09T07:24:39.891Z,54.68
2023-01-09T07:27:06.954Z,54.71
2023-01-09T07:29:34.068Z,54.55
2023-01-09T07:32:01.149Z,54.53
2023-01-09T07:34:28.232Z,54.74
2023-01-09T07:36:55.444Z,54.63
2023-01-09T07:39:22.678Z,54.17
2023-01-09T07:41:49.887Z,54.53
2023-01-09T07:44:17.142Z,54.43
2023-01-09T07:46:44.505Z,54.19
2023-01-09T07:49:11.634Z,53.92
2023-01-09T07:51:43.094Z,54.25
2023-01-09T07:54:12.692Z,54.24
2023-01-09T07:56:41.057Z,54.01
2023-01-09T07:59:08.650Z,53.83
2023-01-09T08:01:36.010Z,53.65
2023-01-09T08:04:03.722Z,53.62
2023-01-09T08:06:31.620Z,53.67
2023-01-09T08:09:00.219Z,53.65
2023-01-09T08:11:27.505Z,53.85
2023-01-09T08:13:54.830Z,53.54
2023-01-09T08:16:22.058Z,53.46
2023-01-09T08:18:49.281Z,53.21
2023-01-09T08:21:16.451Z,53.21
2023-01-09T08:23:45.506Z,53.00
2023-01-09T08:26:12.741Z,53.29
2023-01-09T08:28:40.041Z,53.12
2023-01-09T08:31:07.221Z,52.94
2023-01-09T08:33:34.452Z,52.96
2023-01-09T08:36:01.726Z,53.40
2023-01-09T08:38:29.124Z,53.00
2023-01-09T08:40:56.224Z,53.21
2023-01-09T08:43:42.450Z,53.40
2023-01-09T08:46:46.615Z,53.47
2023-01-09T08:49:13.751Z,53.50
2023-01-09T08:51:40.868Z,53.27
2023-01-09T08:54:08.008Z,53.17
2023-01-09T08:56:35.094Z,53.05
2023-01-09T08:59:02.404Z,53.24
2023-01-09T09:01:29.596Z,52.61
2023-01-09T09:03:56.795Z,52.65
2023-01-09T09:06:23.907Z,52.67
2023-01-09T09:08:51.019Z,52.59
2023-01-09T09:11:18.152Z,51.96
2023-01-09T09:13:45.322Z,52.05
2023-01-09T09:16:12.476Z,52.01
2023-01-09T09:18:39.627Z,52.50
2023-01-09T09:21:06.772Z,52.25
2023-01-09T09:23:33.894Z,52.63
2023-01-09T09:26:00.966Z,52.95
2023-01-09T09:28:28.157Z,53.47
2023-01-09T09:30:55.174Z,53.27
2023-01-09T09:33:22.664Z,53.54
2023-01-09T09:35:49.787Z,54.13
2023-01-09T09:38:17.265Z,54.19
2023-01-09T09:41:35.726Z,53.67
2023-01-09T09:44:48.446Z,53.76
2023-01-09T09:47:40.510Z,53.11
2023-01-09T09:51:02.647Z,52.71
2023-01-09T09:53:59.958Z,52.22
2023-01-09T09:56:31.321Z,52.02
2023-01-09T09:59:16.146Z,51.68
2023-01-09T10:02:56.081Z,51.89
2023-01-09T10:05:44.443Z,51.91
2023-01-09T10:08:55.702Z,51.89
2023-01-09T10:11:52.213Z,51.60
2023-01-09T10:14:24.433Z,51.54
2023-01-09T10:17:35.683Z,52.09
2023-01-09T10:20:21.701Z,53.01
2023-01-09T10:23:13.370Z,54.26
2023-01-09T10:25:52.716Z,54.64
2023-01-09T10:28:42.115Z,55.04
2023-01-09T10:32:12.054Z,55.54
2023-01-09T10:35:20.061Z,56.68
2023-01-09T10:37:53.518Z,57.53
2023-01-09T10:40:39.788Z,58.87
2023-01-09T10:43:23.623Z,60.26
2023-01-09T10:45:54.794Z,61.30
2023-01-09T10:48:37.124Z,62.08
2023-01-09T10:51:21.958Z,61.20
2023-01-09T10:53:55.404Z,59.74
2023-01-09T10:56:37.922Z,58.50
2023-01-09T10:59:05.058Z,57.79
2023-01-09T11:01:38.252Z,57.25
2023-01-09T11:04:30.414Z,55.63
2023-01-09T11:07:20.432Z,55.97
2023-01-09T11:10:08.243Z,55.27
2023-01-09T11:12:36.284Z,55.55
2023-01-09T11:15:19.589Z,54.84
2023-01-09T11:17:50.729Z,53.83
2023-01-09T11:20:32.130Z,52.99
2023-01-09T11:23:00.127Z,53.10
2023-01-09T11:25:29.229Z,52.20
2023-01-09T11:28:02.457Z,51.90
2023-01-09T11:30:38.288Z,51.57
2023-01-09T11:33:20.683Z,51.63
2023-01-09T11:35:57.626Z,51.77
2023-01-09T11:38:24.863Z,50.57
2023-01-09T11:40:58.576Z,49.88
2023-01-09T11:43:39.573Z,49.96
2023-01-09T11:46:15.028Z,49.88
2023-01-09T11:48:59.406Z,50.00
2023-01-09T11:51:35.698Z,49.90
2023-01-09T11:54:26.610Z,50.14
2023-01-09T11:56:54.722Z,48.97
2023-01-09T11:59:31.551Z,46.01
2023-01-09T12:02:34.995Z,43.08
2023-01-09T12:05:49.996Z,40.83
2023-01-09T12:08:29.525Z,39.45
2023-01-09T12:11:40.713Z,39.95
2023-01-09T12:14:29.058Z,40.91
2023-01-09T12:17:05.254Z,41.28
2023-01-09T12:19:56.567Z,41.51
2023-01-09T12:22:49.157Z,42.45
2023-01-09T12:25:29.226Z,42.09
2023-01-09T12:28:52.220Z,42.22
2023-01-09T12:31:33.939Z,39.92
2023-01-09T12:34:36.143Z,38.49
2023-01-09T12:37:38.666Z,38.05
2023-01-09T12:41:02.634Z,39.54
2023-01-09T12:44:09.788Z,40.06
2023-01-09T12:47:25.098Z,38.51
2023-01-09T12:50:41.054Z,40.75
2023-01-09T12:54:10.944Z,43.15
2023-01-09T12:57:02.417Z,44.01
2023-01-09T12:59:49.259Z,44.48
2023-01-09T13:02:23.560Z,43.25
2023-01-09T13:05:27.195Z,42.80
2023-01-09T13:08:13.367Z,41.14
2023-01-09T13:11:08.566Z,40.84
2023-01-09T13:14:20.633Z,41.13
2023-01-09T13:16:53.487Z,42.13
2023-01-09T13:19:31.883Z,43.72
2023-01-09T13:22:06.051Z,44.02
2023-01-09T13:25:04.741Z,44.22
2023-01-09T13:27:41.605Z,44.35
2023-01-09T13:30:21.368Z,44.89
2023-01-09T13:33:17.848Z,45.40
2023-01-09T13:35:58.945Z,45.80
2023-01-09T13:38:31.004Z,45.58
2023-01-09T13:41:37.375Z,45.37
2023-01-09T13:44:19.481Z,45.29
2023-01-09T13:46:50.693Z,45.70
2023-01-09T13:49:37.313Z,45.85
2023-01-09T13:52:32.081Z,46.17
2023-01-09T13:55:01.752Z,47.23
2023-01-09T13:57:36.178Z,48.04
2023-01-09T14:00:12.679Z,48.24
2023-01-09T14:02:41.170Z,48.59
2023-01-09T14:05:15.264Z,48.56
2023-01-09T14:07:45.592Z,48.42
2023-01-09T14:10:31.727Z,48.30
2023-01-09T14:12:59.948Z,48.21
2023-01-09T14:15:39.437Z,47.86
2023-01-09T14:18:17.165Z,47.39
2023-01-09T14:21:20.426Z,47.19
2023-01-09T14:24:06.423Z,47.42
2023-01-09T14:26:46.434Z,47.13
2023-01-09T14:29:29.290Z,46.84
2023-01-09T14:32:21.050Z,47.02
2023-01-09T14:34:55.062Z,47.27
2023-01-09T14:37:22.796Z,47.35
2023-01-09T14:39:51.781Z,47.29
2023-01-09T14:42:24.814Z,47.68
2023-01-09T14:45:06.334Z,47.62
2023-01-09T14:47:49.054Z,47.88
2023-01-09T14:50:22.535Z,47.26
2023-01-09T14:52:54.135Z,47.69
2023-01-09T14:55:26.976Z,47.53
2023-01-09T14:57:55.235Z,47.21
2023-01-09T15:00:23.361Z,47.28
2023-01-09T15:02:53.368Z,47.79
2023-01-09T15:05:26.366Z,48.29
2023-01-09T15:08:01.196Z,48.20
2023-01-09T15:10:36.392Z,48.29
2023-01-09T15:13:08.305Z,48.42
2023-01-09T15:15:36.175Z,48.85
2023-01-09T15:18:08.413Z,48.90
2023-01-09T15:20:38.893Z,48.76
2023-01-09T15:23:06.313Z,48.70
2023-01-09T15:25:40.205Z,48.94
2023-01-09T15:28:28.620Z,48.64
2023-01-09T15:31:11.270Z,48.54
2023-01-09T15:33:40.712Z,48.93
2023-01-09T15:36:31.003Z,49.02
2023-01-09T15:38:59.727Z,49.62
2023-01-09T15:41:48.309Z,49.39
2023-01-09T15:44:27.612Z,49.54
2023-01-09T15:47:01.090Z,49.79
2023-01-09T15:49:29.091Z,50.09
2023-01-09T15:51:56.615Z,50.50
2023-01-09T15:54:30.404Z,50.99
2023-01-09T15:57:35.653Z,51.09
2023-01-09T16:00:41.777Z,51.33
2023-01-09T16:03:20.169Z,51.89
2023-01-09T16:06:05.936Z,51.71
2023-01-09T16:08:41.220Z,51.56
2023-01-09T16:11:21.880Z,51.48
2023-01-09T16:13:49.338Z,51.68
2023-01-09T16:16:28.463Z,51.96
2023-01-09T16:18:57.171Z,51.61
2023-01-09T16:21:29.739Z,51.53
2023-01-09T16:24:06.532Z,51.83
2023-01-09T16:26:37.341Z,51.95
2023-01-09T16:29:31.715Z,52.18
2023-01-09T16:32:06.421Z,52.47
2023-01-09T16:34:37.268Z,52.65
2023-01-09T16:37:05.776Z,52.56
2023-01-09T16:39:32.950Z,52.78
2023-01-09T16:42:19.439Z,52.73
2023-01-09T16:44:46.612Z,52.89
2023-01-09T16:47:13.978Z,52.89
2023-01-09T16:49:41.133Z,52.58
2023-01-09T16:52:17.531Z,52.71
2023-01-09T16:54:46.958Z,52.79
2023-01-09T16:57:18.921Z,52.89
2023-01-09T16:59:46.639Z,53.02
2023-01-09T17:02:20.318Z,53.04
2023-01-09T17:04:48.098Z,53.06
2023-01-09T17:07:16.798Z,53.16
2023-01-09T17:09:45.800Z,53.29
2023-01-09T17:12:22.607Z,53.22
2023-01-09T17:14:50.394Z,53.31
2023-01-09T17:17:18.500Z,53.32
2023-01-09T17:19:48.237Z,53.43
2023-01-09T17:22:15.725Z,53.44
2023-01-09T17:25:01.854Z,53.47
2023-01-09T17:27:54.525Z,53.56
2023-01-09T17:30:22.098Z,53.22
2023-01-09T17:32:49.572Z,53.06
2023-01-09T17:35:17.028Z,53.20
2023-01-09T17:37:44.470Z,53.32
2023-01-09T17:40:23.154Z,53.38
2023-01-09T17:42:53.680Z,53.12
2023-01-09T17:45:20.971Z,53.35
2023-01-09T17:47:49.315Z,53.55
2023-01-09T17:50:22.382Z,53.65
2023-01-09T17:52:52.062Z,53.78
2023-01-09T17:55:19.214Z,54.10
2023-01-09T17:57:46.354Z,54.08
2023-01-09T18:00:30.434Z,54.11
2023-01-09T18:02:59.964Z,54.33
2023-01-09T18:05:29.134Z,54.58
2023-01-09T18:07:56.878Z,54.61
2023-01-09T18:10:28.221Z,54.71
2023-01-09T18:12:56.677Z,55.09
2023-01-09T18:15:28.506Z,55.23
2023-01-09T18:17:56.009Z,55.08
2023-01-09T18:20:26.074Z,55.10
2023-01-09T18:22:53.678Z,55.24
2023-01-09T18:25:25.859Z,55.32
2023-01-09T18:27:56.334Z,55.40
2023-01-09T18:30:23.544Z,54.99
2023-01-09T18:32:50.808Z,54.73
2023-01-09T18:35:18.074Z,54.39
2023-01-09T18:37:45.255Z,53.99
2023-01-09T18:40:12.879Z,53.83
2023-01-09T18:42:40.951Z,53.83
2023-01-09T18:45:09.182Z,53.62
2023-01-09T18:47:36.311Z,53.53
2023-01-09T18:50:03.577Z,53.48
2023-01-09T18:52:30.687Z,53.52
2023-01-09T18:54:58.015Z,53.56
2023-01-09T18:57:25.699Z,53.64
2023-01-09T18:59:52.793Z,53.72
2023-01-09T19:02:25.401Z,53.65
2023-01-09T19:04:53.067Z,53.19
2023-01-09T19:07:20.268Z,53.26
2023-01-09T19:09:47.416Z,53.55
2023-01-09T19:12:14.811Z,53.76
2023-01-09T19:14:42.124Z,53.64
2023-01-09T19:17:09.354Z,53.12
2023-01-09T19:19:36.527Z,52.94
2023-01-09T19:22:03.806Z,53.30
2023-01-09T19:24:32.941Z,53.37
2023-01-09T19:27:00.677Z,53.34
2023-01-09T19:29:28.458Z,53.39
2023-01-09T19:31:56.907Z,53.38
2023-01-09T19:34:24.376Z,53.43
2023-01-09T19:36:51.898Z,53.43
2023-01-09T19:39:19.338Z,53.29
2023-01-09T19:41:46.402Z,53.13
2023-01-09T19:44:13.722Z,53.45
2023-01-09T19:46:40.915Z,53.37
2023-01-09T19:49:08.945Z,52.98
2023-01-09T19:51:36.437Z,52.99
2023-01-09T19:56:35.691Z,53.07
2023-01-09T19:59:05.246Z,52.99
2023-01-09T20:01:39.598Z,53.12
2023-01-09T20:04:13.545Z,53.11
2023-01-09T20:06:43.970Z,52.86
2023-01-09T20:09:13.564Z,52.42
2023-01-09T20:11:41.520Z,52.38
2023-01-09T20:14:13.698Z,52.20
2023-01-09T20:16:43.083Z,52.09
2023-01-09T20:19:13.069Z,51.73
2023-01-09T20:21:40.981Z,51.46
2023-01-09T20:24:11.495Z,51.93
2023-01-09T20:26:40.632Z,51.99
2023-01-09T20:29:10.682Z,51.89
2023-01-09T20:31:37.939Z,51.80
2023-01-09T20:34:05.419Z,51.89
2023-01-09T20:36:32.891Z,52.06
2023-01-09T20:39:03.973Z,52.07
2023-01-09T20:41:31.608Z,52.24
2023-01-09T20:44:01.272Z,52.07
2023-01-09T20:46:31.874Z,51.48
2023-01-09T20:49:03.490Z,51.55
2023-01-09T20:51:31.259Z,51.44
2023-01-09T20:53:59.025Z,51.18
2023-01-09T20:56:30.876Z,50.89
2023-01-09T20:59:00.017Z,51.17
2023-01-09T21:01:28.113Z,50.92
2023-01-09T21:03:57.078Z,50.77
2023-01-09T21:06:26.085Z,50.65
2023-01-09T21:08:53.366Z,50.83
2023-01-09T21:11:22.146Z,50.86
2023-01-09T21:13:49.615Z,51.04
2023-01-09T21:16:21.429Z,51.46
2023-01-09T21:18:49.305Z,51.49
2023-01-09T21:21:23.969Z,51.66
2023-01-09T21:23:58.087Z,51.64
2023-01-09T21:26:28.285Z,51.93
2023-01-09T21:28:58.830Z,51.92
2023-01-09T21:31:35.187Z,52.04
2023-01-09T21:34:06.143Z,51.90
2023-01-09T21:36:35.407Z,52.20
2023-01-09T21:39:07.462Z,52.13
2023-01-09T21:41:54.222Z,52.35
2023-01-09T21:44:40.176Z,52.40
2023-01-09T21:47:07.398Z,52.56
2023-01-09T21:49:36.187Z,52.57
2023-01-09T21:52:04.764Z,52.83
2023-01-09T21:54:33.218Z,52.54
2023-01-09T21:57:04.382Z,52.62
2023-01-09T21:59:32.411Z,52.71
2023-01-09T22:02:00.990Z,52.54
2023-01-09T22:04:30.560Z,52.53
2023-01-09T22:06:58.024Z,52.68
2023-01-09T22:09:25.216Z,52.47
2023-01-09T22:11:55.112Z,52.43
2023-01-09T22:14:23.023Z,52.76
2023-01-09T22:16:50.314Z,53.16
2023-01-09T22:19:18.241Z,53.07
2023-01-09T22:21:46.328Z,53.56
2023-01-09T22:24:16.309Z,53.89
2023-01-09T22:26:43.666Z,53.76
2023-01-09T22:29:10.989Z,53.72
2023-01-09T22:31:40.081Z,54.01
2023-01-09T22:34:07.462Z,54.50
2023-01-09T22:36:34.652Z,54.48
2023-01-09T22:39:01.855Z,54.59
2023-01-09T22:41:30.598Z,54.68
2023-01-09T22:43:58.645Z,54.60
2023-01-09T22:46:26.337Z,54.88
2023-01-09T22:48:53.512Z,54.71
2023-01-09T22:51:21.858Z,54.45
2023-01-09T22:53:50.331Z,54.80
2023-01-09T22:56:20.460Z,54.97
2023-01-09T22:58:58.366Z,54.92
2023-01-09T23:01:25.699Z,54.86
2023-01-09T23:03:52.830Z,55.43
2023-01-09T23:06:22.775Z,55.29
2023-01-09T23:08:51.749Z,55.48
2023-01-09T23:11:48.785Z,55.44
2023-01-09T23:14:17.105Z,55.36
2023-01-09T23:16:44.451Z,55.11
2023-01-09T23:19:17.286Z,55.56
2023-01-09T23:21:45.582Z,55.52
2023-01-09T23:24:17.284Z,55.61
2023-01-09T23:26:45.012Z,55.53
2023-01-09T23:29:13.018Z,55.36
2023-01-09T23:31:40.089Z,55.25
2023-01-09T23:34:09.850Z,54.88
2023-01-09T23:36:36.989Z,54.83
2023-01-09T23:39:08.834Z,55.00
2023-01-09T23:41:59.776Z,54.66
2023-01-09T23:44:27.831Z,54.73
2023-01-09T23:46:55.099Z,54.48
2023-01-09T23:49:22.265Z,54.55
2023-01-09T23:51:49.931Z,54.41
2023-01-09T23:54:17.263Z,54.73
2023-01-09T23:56:44.854Z,54.32
2023-01-09T23:59:14.216Z,54.50
